Chimney Rock, CO (81127)

9:17 AM MDT on September 21, 2014 (GMT -0600)
Meadows III | Change Station
CLOSE
Current Station
Personal Weather Station
Location: Pagosa Springs, CO
Elevation: 7438 ft
Nearby Weather Stations
Active Advisory: Special Statement Active Notice: Public Information Statement

Elev 7438 ft 37.22 °N, 107.10 °W | Updated 5 seconds ago

Clear
Clear
64.2 °F
Feels Like 64.2 °F
N
0.0
Wind Variable Wind from South
Gusts 0.0 mph

Today
High -- | Low -- °F
--% Chance of Precip.
Yesterday
High -- | Low -- °F
Precip. -- in
6:56 AM 7:07 PM
Waning Crescent, 6% visible
Pressure 30.46 in
Visibility 10.0 miles
Clouds Clear
Dew Point 50 °F
Humidity 59%
Rainfall 0.08 in
Snow Depth 0 in , 0 in , 0 in
UV 2.3 out of 12
Pollen 6.30 out of 12
Air Quality Not available.
Flu Activity Not available.
METAR KPSO 211435Z AUTO 00000KT 10SM CLR 14/10 A3046 RMK AO2 T01410101

More Conditions Fewer Conditions

Pressure 30.46 in
Visibility 10.0 miles
Clouds Clear
Dew Point 50 °F
Humidity 59%
Rainfall 0.08 in
Snow Depth 0 in , 0 in , 0 in
UV 2.3 out of 12
Pollen 6.30 out of 12
Air Quality Not available.
Flu Activity Not available.
METAR KPSO 211435Z AUTO 00000KT 10SM CLR 14/10 A3046 RMK AO2 T01410101

More Conditions Fewer Conditions

10-Day Weather Forecast

Almanac

Astronomy

Sep. 21, 2014 Rise Set
Actual Time 6:56 AM MDT 7:07 PM MDT
Civil Twilight 6:30 AM MDT 7:33 PM MDT
Nautical Twilight 5:59 AM MDT 8:03 PM MDT
Astronomical Twilight 5:28 AM MDT 8:34 PM MDT
Moon 4:35 AM MDT 5:43 PM MDT
Length of Visible Light 13h 03m
Length of Day
12h 11m
Tomorrow will be 2m 22s shorter.
Waning Crescent, 6% of the Moon is Illuminated
Today
Waning Crescent
Sep 24
New
Oct 1
First Quarter
Oct 8
Full
Oct 15
Last Quarter

Today's Extremes

State Highs State Lows

Community

WunderPhotos

Upload Photos

1,755,166 photos uploaded!

Nearby

Snow Depth

Station Depth Elevation
Columbine Pass 0 in 9400 ft
Copeland Lake 0 in 8600 ft
Jackwhacker Gulch 0 in 10960 ft
North Lost Trail 0 in 9200 ft
Rabbit Ears 0 in 9400 ft

Earthquake Activity

City Distance Mag. Time & Date
No recent earthquake activity has been reported nearby.
Minimum magnitude displayed is 2.5.

Coastal Water Temperatures

Place Temperature
No Stations Reporting

Nearby Weather Stations